createdAt,value
2023-04-16T00:04:48.195Z,99791.19
2023-04-16T00:09:49.620Z,99789.16
2023-04-16T00:14:51.004Z,99791.47
2023-04-16T00:19:52.432Z,99797.50
2023-04-16T00:24:53.829Z,99803.47
2023-04-16T00:29:55.302Z,99809.25
2023-04-16T00:34:56.668Z,99807.88
2023-04-16T00:39:58.091Z,99818.97
2023-04-16T00:44:59.453Z,99818.22
2023-04-16T00:50:00.872Z,99810.31
2023-04-16T00:55:02.475Z,99815.50
2023-04-16T01:00:05.028Z,99812.50
2023-04-16T01:05:06.588Z,99816.41
2023-04-16T01:10:08.202Z,99820.38
2023-04-16T01:15:11.165Z,99819.78
2023-04-16T01:20:12.549Z,99813.91
2023-04-16T01:25:15.276Z,99810.19
2023-04-16T01:30:16.661Z,99820.84
2023-04-16T01:35:18.277Z,99821.69
2023-04-16T01:40:19.753Z,99828.34
2023-04-16T01:45:21.766Z,99834.03
2023-04-16T01:50:23.221Z,99826.66
2023-04-16T01:55:24.727Z,99825.09
2023-04-16T02:00:26.131Z,99834.78
2023-04-16T02:05:27.595Z,99827.75
2023-04-16T02:10:28.971Z,99833.03
2023-04-16T02:15:30.387Z,99837.03
2023-04-16T02:20:31.765Z,99838.69
2023-04-16T02:25:33.189Z,99841.16
2023-04-16T02:30:37.743Z,99844.97
2023-04-16T02:35:39.444Z,99851.75
2023-04-16T02:40:41.055Z,99855.66
2023-04-16T02:45:42.529Z,99863.59
2023-04-16T02:50:44.053Z,99861.38
2023-04-16T02:55:54.717Z,99852.94
2023-04-16T03:00:56.167Z,99852.44
2023-04-16T03:05:57.570Z,99861.88
2023-04-16T03:10:58.946Z,99866.34
2023-04-16T03:16:00.355Z,99875.38
2023-04-16T03:21:01.827Z,99875.78
2023-04-16T03:26:03.289Z,99898.72
2023-04-16T03:31:04.747Z,99894.50
2023-04-16T03:36:06.538Z,99902.06
2023-04-16T03:41:07.947Z,99901.22
2023-04-16T03:46:09.337Z,99906.78
2023-04-16T03:51:10.932Z,99899.63
2023-04-16T03:56:12.334Z,99913.31
2023-04-16T04:01:13.731Z,99916.03
2023-04-16T04:06:15.147Z,99923.19
2023-04-16T04:11:16.528Z,99929.97
2023-04-16T04:16:18.015Z,99934.88
2023-04-16T04:21:19.465Z,99938.16
2023-04-16T04:26:21.011Z,99935.66
2023-04-16T04:31:22.451Z,99938.66
2023-04-16T04:36:23.904Z,99944.22
2023-04-16T04:41:26.813Z,99951.34
2023-04-16T04:46:28.222Z,99950.66
2023-04-16T04:51:29.637Z,99959.69
2023-04-16T04:56:31.052Z,99958.72
2023-04-16T05:01:32.477Z,99961.03
2023-04-16T05:06:36.452Z,99961.09
2023-04-16T05:11:38.629Z,99969.06
2023-04-16T05:16:40.174Z,99967.19
2023-04-16T05:21:41.562Z,99975.38
2023-04-16T05:26:42.949Z,99981.66
2023-04-16T05:31:44.330Z,99980.84
2023-04-16T05:36:45.906Z,99992.28
2023-04-16T05:41:47.273Z,99999.63
2023-04-16T05:46:48.644Z,99998.06
2023-04-16T05:51:50.988Z,100008.31
2023-04-16T05:56:52.541Z,100013.03
2023-04-16T06:01:53.925Z,100019.69
2023-04-16T06:06:55.458Z,100032.53
2023-04-16T06:11:57.820Z,100035.53
2023-04-16T06:16:59.186Z,100027.88
2023-04-16T06:22:00.581Z,100029.78
2023-04-16T06:27:02.720Z,100031.47
2023-04-16T06:32:04.279Z,100040.47
2023-04-16T06:37:06.423Z,100040.81
2023-04-16T06:42:09.204Z,100043.81
2023-04-16T06:47:10.613Z,100051.41
2023-04-16T06:52:12.040Z,100049.28
2023-04-16T06:57:13.533Z,100046.75
2023-04-16T07:02:15.214Z,100038.56
2023-04-16T07:07:16.646Z,100044.88
2023-04-16T07:12:18.029Z,100044.16
2023-04-16T07:17:19.535Z,100061.28
2023-04-16T07:22:21.174Z,100058.88
2023-04-16T07:27:22.582Z,100059.84
2023-04-16T07:32:24.115Z,100063.16
2023-04-16T07:37:25.848Z,100056.16
2023-04-16T07:42:27.887Z,100065.31
2023-04-16T07:47:29.276Z,100071.72
2023-04-16T07:52:30.695Z,100062.19
2023-04-16T07:57:32.148Z,100081.47
2023-04-16T08:02:33.679Z,100084.44
2023-04-16T08:07:35.294Z,100087.63
2023-04-16T08:12:36.692Z,100084.81
2023-04-16T08:17:38.632Z,100077.53
2023-04-16T08:22:40.151Z,100092.03
2023-04-16T08:27:41.530Z,100090.63
2023-04-16T08:32:44.184Z,100101.44
2023-04-16T08:37:45.929Z,100103.59
2023-04-16T08:42:53.475Z,100114.38
2023-04-16T08:47:54.911Z,100110.94
2023-04-16T08:53:00.828Z,100117.00
2023-04-16T08:58:03.217Z,100123.16
2023-04-16T09:03:04.683Z,100125.56
2023-04-16T09:08:06.595Z,100125.22
2023-04-16T09:13:09.259Z,100123.44
2023-04-16T09:18:11.946Z,100129.13
2023-04-16T09:23:13.325Z,100139.13
2023-04-16T09:28:44.550Z,100134.03
2023-04-16T09:34:03.130Z,100132.22
2023-04-16T09:39:04.534Z,100139.22
2023-04-16T09:44:06.042Z,100141.63
2023-04-16T09:49:13.871Z,100152.19
2023-04-16T09:54:15.986Z,100154.56
2023-04-16T09:59:18.368Z,100153.16
2023-04-16T10:04:20.391Z,100154.09
2023-04-16T10:09:21.822Z,100161.19
2023-04-16T10:14:23.195Z,100155.06
2023-04-16T10:19:27.774Z,100155.91
2023-04-16T10:24:29.908Z,100165.88
2023-04-16T10:29:31.501Z,100166.22
2023-04-16T10:34:32.877Z,100165.41
2023-04-16T10:39:37.188Z,100163.34
2023-04-16T10:44:40.296Z,100167.19
2023-04-16T10:49:43.617Z,100161.38
2023-04-16T10:54:45.057Z,100166.09
2023-04-16T10:59:46.995Z,100168.59
2023-04-16T11:04:48.981Z,100175.38
2023-04-16T11:09:57.514Z,100175.88
2023-04-16T11:15:00.030Z,100184.75
2023-04-16T11:20:01.497Z,100173.22
2023-04-16T11:25:03.028Z,100179.41
2023-04-16T11:30:05.794Z,100180.25
2023-04-16T11:35:16.996Z,100176.44
2023-04-16T11:40:18.387Z,100177.16
2023-04-16T11:45:19.762Z,100179.66
2023-04-16T11:50:25.337Z,100178.94
2023-04-16T11:55:26.738Z,100174.88
2023-04-16T12:00:34.814Z,100172.31
2023-04-16T12:05:39.863Z,100176.94
2023-04-16T12:10:54.219Z,100174.28
2023-04-16T12:15:56.569Z,100166.56
2023-04-16T12:20:58.083Z,100173.63
2023-04-16T12:26:02.044Z,100175.72
2023-04-16T12:31:03.746Z,100171.56
2023-04-16T12:36:20.497Z,100173.38
2023-04-16T12:41:21.874Z,100172.53
2023-04-16T12:46:23.312Z,100163.25
2023-04-16T12:51:24.711Z,100162.44
2023-04-16T12:56:26.137Z,100161.47
2023-04-16T13:01:27.582Z,100162.69
2023-04-16T13:06:29.754Z,100168.72
2023-04-16T13:11:31.141Z,100165.50
2023-04-16T13:16:32.527Z,100163.97
2023-04-16T13:21:34.184Z,100168.16
2023-04-16T13:26:35.677Z,100179.19
2023-04-16T13:31:37.170Z,100172.03
2023-04-16T13:36:38.792Z,100176.19
2023-04-16T13:41:40.323Z,100177.03
2023-04-16T13:46:47.320Z,100179.91
2023-04-16T13:51:49.078Z,100180.16
2023-04-16T13:56:51.079Z,100193.91
2023-04-16T14:01:52.483Z,100187.13
2023-04-16T14:06:54.216Z,100195.94
2023-04-16T14:11:55.717Z,100187.75
2023-04-16T14:16:58.179Z,100184.88
2023-04-16T14:21:59.601Z,100192.84
2023-04-16T14:27:00.967Z,100194.66
2023-04-16T14:32:02.632Z,100203.44
2023-04-16T14:37:04.140Z,100201.91
2023-04-16T14:42:06.402Z,100191.53
2023-04-16T14:47:08.412Z,100190.03
2023-04-16T14:52:09.826Z,100203.78
2023-04-16T14:57:11.234Z,100207.84
2023-04-16T15:02:12.739Z,100206.03
2023-04-16T15:07:14.202Z,100216.72
2023-04-16T15:12:17.948Z,100242.06
2023-04-16T15:17:20.760Z,100219.84
2023-04-16T15:22:22.146Z,100223.50
2023-04-16T15:27:23.522Z,100232.47
2023-04-16T15:32:25.164Z,100227.22
2023-04-16T15:37:26.618Z,100231.13
2023-04-16T15:42:28.016Z,100236.97
2023-04-16T15:47:29.429Z,100236.34
2023-04-16T15:52:31.187Z,100241.97
2023-04-16T15:57:32.778Z,100255.63
2023-04-16T16:02:34.544Z,100262.28
2023-04-16T16:07:36.219Z,100260.28
2023-04-16T16:12:37.715Z,100262.75
2023-04-16T16:17:40.414Z,100264.78
2023-04-16T16:22:45.050Z,100277.97
2023-04-16T16:27:46.462Z,100276.91
2023-04-16T16:32:47.892Z,100294.25
2023-04-16T16:37:49.308Z,100294.13
2023-04-16T16:42:50.707Z,100294.72
2023-04-16T16:47:52.140Z,100308.53
2023-04-16T16:52:53.590Z,100309.00
2023-04-16T16:57:55.049Z,100317.09
2023-04-16T17:02:56.627Z,100318.84
2023-04-16T17:07:58.186Z,100316.13
2023-04-16T17:12:59.554Z,100326.00
2023-04-16T17:18:01.007Z,100327.06
2023-04-16T17:23:02.886Z,100334.19
2023-04-16T17:28:04.882Z,100334.09
2023-04-16T17:33:06.294Z,100329.31
2023-04-16T17:38:07.836Z,100357.38
2023-04-16T17:43:09.218Z,100351.91
2023-04-16T17:48:10.864Z,100357.84
2023-04-16T17:53:12.277Z,100354.28
2023-04-16T17:58:13.882Z,100362.47
2023-04-16T18:03:15.654Z,100370.56
2023-04-16T18:08:17.151Z,100374.25
2023-04-16T18:13:18.514Z,100370.78
2023-04-16T18:18:21.140Z,100378.19
2023-04-16T18:23:22.526Z,100386.59
2023-04-16T18:28:24.628Z,100392.19
2023-04-16T18:33:52.318Z,100388.50
2023-04-16T18:39:00.255Z,100398.13
2023-04-16T18:44:03.577Z,100401.59
2023-04-16T18:49:05.324Z,100411.00
2023-04-16T18:54:06.719Z,100406.78
2023-04-16T18:59:08.322Z,100410.38
2023-04-16T19:04:09.832Z,100412.03
2023-04-16T19:09:11.743Z,100416.47
2023-04-16T19:14:13.240Z,100414.53
2023-04-16T19:19:14.698Z,100413.72
2023-04-16T19:24:16.114Z,100418.56
2023-04-16T19:29:17.988Z,100422.16
2023-04-16T19:34:19.368Z,100426.31
2023-04-16T19:39:20.860Z,100424.66
2023-04-16T19:44:23.077Z,100436.41
2023-04-16T19:49:27.269Z,100433.44
2023-04-16T19:54:28.791Z,100434.13
2023-04-16T19:59:32.082Z,100436.41
2023-04-16T20:04:34.410Z,100436.41
2023-04-16T20:09:35.832Z,100437.00
2023-04-16T20:14:37.198Z,100440.44
2023-04-16T20:19:38.627Z,100444.38
2023-04-16T20:24:40.022Z,100433.66
2023-04-16T20:29:41.673Z,100431.19
2023-04-16T20:34:43.093Z,100429.50
2023-04-16T20:39:46.450Z,100436.78
2023-04-16T20:44:50.100Z,100439.38
2023-04-16T20:49:52.610Z,100433.66
2023-04-16T20:54:54.125Z,100447.34
2023-04-16T20:59:56.260Z,100441.06
2023-04-16T21:04:57.743Z,100449.47
2023-04-16T21:10:00.991Z,100443.78
2023-04-16T21:15:03.156Z,100443.31
2023-04-16T21:20:06.836Z,100445.31
2023-04-16T21:25:08.742Z,100449.25
2023-04-16T21:30:10.434Z,100457.81
2023-04-16T21:35:11.882Z,100450.78
2023-04-16T21:40:13.356Z,100449.25
2023-04-16T21:45:14.772Z,100452.94
2023-04-16T21:50:16.198Z,100454.72
2023-04-16T21:55:17.649Z,100452.69
2023-04-16T22:00:19.185Z,100457.69
2023-04-16T22:05:20.926Z,100450.69
2023-04-16T22:10:22.496Z,100457.94
2023-04-16T22:15:23.863Z,100460.41
2023-04-16T22:20:25.232Z,100464.47
2023-04-16T22:25:26.608Z,100457.31
2023-04-16T22:30:28.024Z,100462.94
2023-04-16T22:35:29.554Z,100454.94
2023-04-16T22:40:31.701Z,100459.09
2023-04-16T22:45:33.089Z,100454.38
2023-04-16T22:50:34.475Z,100450.31
2023-04-16T22:55:36.480Z,100452.81
2023-04-16T23:00:37.993Z,100454.81
2023-04-16T23:05:39.362Z,100447.81
2023-04-16T23:10:40.768Z,100453.66
2023-04-16T23:15:43.547Z,100454.13
2023-04-16T23:20:44.970Z,100459.56
2023-04-16T23:25:46.367Z,100451.63
2023-04-16T23:30:51.322Z,100459.09
2023-04-16T23:35:52.741Z,100463.16
2023-04-16T23:40:54.115Z,100454.72
2023-04-16T23:45:55.560Z,100452.34
2023-04-16T23:50:56.969Z,100452.22
2023-04-16T23:55:58.380Z,100458.28
